Time;durP1;ratioP1;P1;durP2;ratioP2;P2;SDS_P1;SDS_P2;PMS_P1;PMS_P2;Temp;Humidity;BMP_temperature;BMP_pressure;BME280_temperature;BME280_humidity;BME280_pressure;Samples;Min_cycle;Max_cycle;Signal;HPM_P1;HPM_P2
2023/04/02 06:09:21;;;;;;;;;;;;;;;;;;5152806;23;19923;-84
2023/04/02 06:11:49;;;;;;;;;;;;;;;;;;4938577;29;19919;-84
2023/04/02 06:14:15;;;;;;;;;;;;;;;;;;4938218;29;19921;-83
2023/04/02 06:16:43;;;;;;;;;;;;;;;;;;4938513;29;20006;-86
2023/04/02 08:49:18;;;;;;;;;;;;;;;;;;4880106;29;19919;-85
2023/04/02 08:51:45;;;;;;;;;;;;;;;;;;4898398;29;20369;-84
2023/04/02 08:54:13;;;;;;;;;;;;;;;;;;4899814;29;19922;-83
2023/04/02 08:56:42;;;;;;;;;;;;;;;;;;4884997;29;19915;-84
2023/04/02 08:59:21;;;;;;;;;;;;;;;;;;4901966;29;19911;-83
2023/04/02 09:01:51;;;;;;;;;;;;;;;;;;4901893;29;19950;-85
2023/04/02 09:04:19;;;;;;;;;;;;;;;;;;4901803;29;19911;-82
2023/04/02 09:06:45;;;;;;;;;;;;;;;;;;4884851;29;19939;-83
2023/04/02 09:09:11;;;;;;;;;;;;;;;;;;4901891;29;20322;-82
2023/04/02 09:11:59;;;;;;;;;;;;;;;;;;4901786;29;19915;-84
2023/04/02 09:14:43;;;;;;;;;;;;;;;;;;4901444;29;19919;-82
2023/04/02 09:17:14;;;;;;;;;;;;;;;;;;4884763;29;20299;-82
2023/04/02 09:19:41;;;;;;;;;;;;;;;;;;4901601;29;19935;-82
2023/04/02 09:22:08;;;;;;;;;;;;;;;;;;4901716;29;19916;-84
2023/04/02 09:24:33;;;;;;;;;;;;;;;;;;4901232;29;19911;-84
2023/04/02 09:26:59;;;;;;;;;;;;;;;;;;4884553;29;20386;-84
2023/04/02 09:29:42;;;;;;;;;;;;;;;;;;4901369;29;19911;-83
2023/04/02 09:32:13;;;;;;;;;;;;;;;;;;4901322;29;19951;-83
2023/04/02 09:34:38;;;;;;;;;;;;;;;;;;4901086;29;19915;-84
2023/04/02 09:37:15;;;;;;;;;;;;;;;;;;4901511;29;19916;-82
2023/04/02 09:39:40;;;;;;;;;;;;;;;;;;4884140;29;19918;-83
2023/04/02 09:42:07;;;;;;;;;;;;;;;;;;4901075;29;19915;-83
2023/04/02 09:44:33;;;;;;;;;;;;;;;;;;4884653;29;19951;-85
2023/04/02 09:47:03;;;;;;;;;;;;;;;;;;4901268;29;20014;-83
2023/04/02 13:46:04;;;;;;;;;;;;;;;;;;4937574;29;19961;-85
2023/04/02 13:48:30;;;;;;;;;;;;;;;;;;4939052;29;20025;-85
2023/04/02 13:50:55;;;;;;;;;;;;;;;;;;4938863;29;19969;-86
2023/04/02 13:53:22;;;;;;;;;;;;;;;;;;4938762;29;19961;-86
2023/04/02 13:55:47;;;;;;;;;;;;;;;;;;4921782;29;20380;-88
2023/04/02 13:58:13;;;;;;;;;;;;;;;;;;4921761;29;20013;-89
2023/04/02 14:00:38;;;;;;;;;;;;;;;;;;4938898;29;20365;-87
2023/04/02 14:03:12;;;;;;;;;;;;;;;;;;4938661;29;20005;-86
2023/04/02 14:05:40;;;;;;;;;;;;;;;;;;4939060;29;20370;-85
2023/04/02 14:08:07;;;;;;;;;;;;;;;;;;4938647;29;19922;-86
2023/04/02 14:10:54;;;;;;;;;;;;;;;;;;4938637;29;19914;-86
2023/04/02 14:13:38;;;;;;;;;;;;;;;;;;4938827;29;20262;-86
2023/04/02 14:16:22;;;;;;;;;;;;;;;;;;4938595;29;19925;-85
2023/04/02 14:18:56;;;;;;;;;;;;;;;;;;4938410;29;19978;-84
2023/04/02 14:21:24;;;;;;;;;;;;;;;;;;4938407;29;19915;-85
2023/04/02 14:23:55;;;;;;;;;;;;;;;;;;4921384;29;20025;-84
2023/04/02 14:26:23;;;;;;;;;;;;;;;;;;4938473;29;19921;-85
2023/04/02 14:28:56;;;;;;;;;;;;;;;;;;4938156;29;20297;-85
2023/04/02 14:31:26;;;;;;;;;;;;;;;;;;4938202;29;19926;-86
2023/04/02 14:34:00;;;;;;;;;;;;;;;;;;4938166;29;19921;-85
2023/04/02 14:36:25;;;;;;;;;;;;;;;;;;4938151;29;20001;-85
2023/04/02 14:38:54;;;;;;;;;;;;;;;;;;4938164;29;19953;-85
2023/04/02 14:41:32;;;;;;;;;;;;;;;;;;4920900;29;19915;-85
2023/04/02 14:44:00;;;;;;;;;;;;;;;;;;4938017;29;19961;-86
2023/04/02 14:46:27;;;;;;;;;;;;;;;;;;4937775;29;19918;-85
2023/04/02 14:48:55;;;;;;;;;;;;;;;;;;4937860;29;20001;-85
2023/04/02 14:51:21;;;;;;;;;;;;;;;;;;4937674;29;20024;-87
2023/04/02 14:54:05;;;;;;;;;;;;;;;;;;4938416;29;19915;-86
2023/04/02 14:56:37;;;;;;;;;;;;;;;;;;4937666;29;19919;-87
2023/04/02 14:59:02;;;;;;;;;;;;;;;;;;4920813;29;19914;-86
2023/04/02 15:01:40;;;;;;;;;;;;;;;;;;4937742;29;19927;-85
2023/04/02 15:04:21;;;;;;;;;;;;;;;;;;4937903;29;20013;-85
2023/04/02 15:06:49;;;;;;;;;;;;;;;;;;4937546;29;19915;-85
2023/04/02 15:09:33;;;;;;;;;;;;;;;;;;4920737;29;19925;-85
2023/04/02 15:12:16;;;;;;;;;;;;;;;;;;4937312;29;19982;-85
2023/04/02 15:14:47;;;;;;;;;;;;;;;;;;4937010;29;19915;-84
2023/04/02 15:17:12;;;;;;;;;;;;;;;;;;4937496;29;19914;-85
2023/04/02 15:19:38;;;;;;;;;;;;;;;;;;4937339;29;19914;-85
2023/04/02 15:22:06;;;;;;;;;;;;;;;;;;4937160;29;19925;-85
2023/04/02 15:24:31;;;;;;;;;;;;;;;;;;4937070;29;19918;-85
2023/04/02 15:27:09;;;;;;;;;;;;;;;;;;4937117;29;19921;-84
2023/04/02 15:29:35;;;;;;;;;;;;;;;;;;4937258;29;19914;-84
2023/04/02 15:32:06;;;;;;;;;;;;;;;;;;4936974;29;19961;-85
2023/04/02 15:34:34;;;;;;;;;;;;;;;;;;4937122;29;20277;-85
2023/04/02 15:37:09;;;;;;;;;;;;;;;;;;4937103;29;19918;-85
2023/04/02 15:39:42;;;;;;;;;;;;;;;;;;4937053;29;20001;-85
2023/04/02 15:42:24;;;;;;;;;;;;;;;;;;4936712;29;19938;-84
2023/04/02 15:45:16;;;;;;;;;;;;;;;;;;4937056;29;19919;-85
2023/04/02 15:47:41;;;;;;;;;;;;;;;;;;4932777;29;19926;-84
2023/04/02 15:50:25;;;;;;;;;;;;;;;;;;4936825;29;19915;-85
2023/04/02 15:52:59;;;;;;;;;;;;;;;;;;4936917;29;19911;-85
2023/04/02 15:55:32;;;;;;;;;;;;;;;;;;4936697;29;20267;-85
2023/04/02 15:58:03;;;;;;;;;;;;;;;;;;4919698;29;20266;-85
2023/04/02 16:00:30;;;;;;;;;;;;;;;;;;4919568;29;20258;-85
2023/04/02 16:02:57;;;;;;;;;;;;;;;;;;4919384;29;19914;-84
2023/04/02 16:05:40;;;;;;;;;;;;;;;;;;4936508;29;20282;-85
2023/04/02 16:08:15;;;;;;;;;;;;;;;;;;4936765;29;19915;-85
2023/04/02 16:10:41;;;;;;;;;;;;;;;;;;4936490;29;19970;-85
2023/04/02 16:13:15;;;;;;;;;;;;;;;;;;4936829;29;19915;-84
2023/04/02 16:15:42;;;;;;;;;;;;;;;;;;4936719;29;20246;-85
2023/04/02 16:18:12;;;;;;;;;;;;;;;;;;4936552;29;19914;-85
2023/04/02 16:20:58;;;;;;;;;;;;;;;;;;4936582;29;19923;-85
2023/04/02 16:23:35;;;;;;;;;;;;;;;;;;4936470;29;19926;-85
2023/04/02 16:26:18;;;;;;;;;;;;;;;;;;4936612;29;19915;-84
2023/04/02 16:28:44;;;;;;;;;;;;;;;;;;4936576;29;20267;-85
2023/04/02 16:31:12;;;;;;;;;;;;;;;;;;4936374;29;19966;-85
2023/04/02 16:33:58;;;;;;;;;;;;;;;;;;4936653;29;19922;-84
2023/04/02 16:36:23;;;;;;;;;;;;;;;;;;4936362;29;19919;-84
2023/04/02 16:38:48;;;;;;;;;;;;;;;;;;4936307;29;20003;-85
2023/04/02 16:41:23;;;;;;;;;;;;;;;;;;4936252;29;19922;-86
2023/04/02 16:43:55;;;;;;;;;;;;;;;;;;4936394;29;20503;-85
2023/04/02 16:46:35;;;;;;;;;;;;;;;;;;4936109;29;19981;-85
2023/04/02 16:49:12;;;;;;;;;;;;;;;;;;4936293;29;19914;-88
2023/04/02 16:51:40;;;;;;;;;;;;;;;;;;4919365;29;19960;-87
2023/04/02 16:54:15;;;;;;;;;;;;;;;;;;4919084;29;19969;-86
2023/04/02 16:56:57;;;;;;;;;;;;;;;;;;4936345;29;20001;-86
2023/04/02 16:59:34;;;;;;;;;;;;;;;;;;4936346;29;19922;-85
2023/04/02 17:02:19;;;;;;;;;;;;;;;;;;4936550;29;19921;-86
2023/04/02 17:05:23;;;;;;;;;;;;;;;;;;4936239;29;19915;-85
2023/04/02 17:08:03;;;;;;;;;;;;;;;;;;4840884;29;19917;-85
2023/04/02 17:10:35;;;;;;;;;;;;;;;;;;4840932;29;19917;-86
2023/04/02 17:13:19;;;;;;;;;;;;;;;;;;4898294;29;19915;-84
2023/04/02 17:15:48;;;;;;;;;;;;;;;;;;4938206;29;20493;-84
2023/04/02 17:18:18;;;;;;;;;;;;;;;;;;4939643;29;20047;-85
2023/04/02 17:20:44;;;;;;;;;;;;;;;;;;4939469;29;19919;-84
2023/04/02 17:23:12;;;;;;;;;;;;;;;;;;4939575;29;20362;-85
2023/04/02 17:25:44;;;;;;;;;;;;;;;;;;4939423;29;19953;-85
2023/04/02 17:28:11;;;;;;;;;;;;;;;;;;4939669;29;19933;-87
2023/04/02 17:30:40;;;;;;;;;;;;;;;;;;4939407;29;19921;-84
2023/04/02 17:33:31;;;;;;;;;;;;;;;;;;4939194;29;19923;-83
2023/04/02 17:35:59;;;;;;;;;;;;;;;;;;4935025;29;19922;-84
2023/04/02 17:38:43;;;;;;;;;;;;;;;;;;4939374;29;19925;-84
2023/04/02 17:41:14;;;;;;;;;;;;;;;;;;4939146;29;19915;-84
2023/04/02 17:43:54;;;;;;;;;;;;;;;;;;4939185;29;19962;-85
2023/04/02 17:46:29;;;;;;;;;;;;;;;;;;4938954;29;20001;-84
2023/04/02 17:48:59;;;;;;;;;;;;;;;;;;4938869;29;20334;-84
2023/04/02 17:51:38;;;;;;;;;;;;;;;;;;4938986;29;19919;-85
2023/04/02 17:54:11;;;;;;;;;;;;;;;;;;4939086;29;19923;-84
2023/04/02 17:56:46;;;;;;;;;;;;;;;;;;4939198;29;19919;-86
2023/04/02 17:59:20;;;;;;;;;;;;;;;;;;4938834;29;19918;-83
2023/04/02 18:01:51;;;;;;;;;;;;;;;;;;4939055;29;19937;-84
2023/04/02 18:04:22;;;;;;;;;;;;;;;;;;4951413;29;19914;-86
2023/04/02 18:06:58;;;;;;;;;;;;;;;;;;4958850;29;20009;-87
2023/04/02 18:09:33;;;;;;;;;;;;;;;;;;4942008;29;19914;-86
2023/04/02 18:12:27;;;;;;;;;;;;;;;;;;4957806;29;19922;-86
2023/04/02 18:15:00;;;;;;;;;;;;;;;;;;4940575;29;19914;-85
2023/04/02 18:17:38;;;;;;;;;;;;;;;;;;4958886;29;19968;-86
2023/04/02 18:20:18;;;;;;;;;;;;;;;;;;4958169;29;19918;-86
2023/04/02 18:23:02;;;;;;;;;;;;;;;;;;4957747;29;19918;-86
2023/04/02 18:25:28;;;;;;;;;;;;;;;;;;4957559;29;19915;-86
2023/04/02 18:27:59;;;;;;;;;;;;;;;;;;4939867;29;19985;-86
2023/04/02 18:30:25;;;;;;;;;;;;;;;;;;4940531;29;20005;-86
2023/04/02 18:32:50;;;;;;;;;;;;;;;;;;4957384;29;20341;-86
2023/04/02 18:35:38;;;;;;;;;;;;;;;;;;4940247;29;19941;-86
2023/04/02 18:38:39;;;;;;;;;;;;;;;;;;4957541;29;20285;-85
2023/04/02 18:41:25;;;;;;;;;;;;;;;;;;4879517;29;19919;-85
2023/04/02 18:44:06;;;;;;;;;;;;;;;;;;4952160;29;19949;-85
2023/04/02 18:46:52;;;;;;;;;;;;;;;;;;4956936;29;19922;-90
2023/04/02 18:49:18;;;;;;;;;;;;;;;;;;4957167;29;19961;-85
2023/04/02 18:51:45;;;;;;;;;;;;;;;;;;4957121;29;19922;-85
2023/04/02 18:54:10;;;;;;;;;;;;;;;;;;4956989;29;20396;-85
2023/04/02 18:56:36;;;;;;;;;;;;;;;;;;4939926;29;19918;-86
2023/04/02 18:59:16;;;;;;;;;;;;;;;;;;4957328;29;20368;-87
2023/04/02 19:01:44;;;;;;;;;;;;;;;;;;4956656;29;19957;-84
2023/04/02 19:04:13;;;;;;;;;;;;;;;;;;4956937;29;19977;-83
2023/04/02 19:06:41;;;;;;;;;;;;;;;;;;4956817;29;20362;-84
2023/04/02 19:09:17;;;;;;;;;;;;;;;;;;4956637;29;19914;-84
2023/04/02 19:11:43;;;;;;;;;;;;;;;;;;4956593;29;20005;-84
2023/04/02 19:14:18;;;;;;;;;;;;;;;;;;4956769;29;20005;-84
2023/04/02 19:16:47;;;;;;;;;;;;;;;;;;4956758;29;19924;-84
2023/04/02 19:19:25;;;;;;;;;;;;;;;;;;4956506;29;19910;-84
2023/04/02 19:21:57;;;;;;;;;;;;;;;;;;4956750;29;19921;-84
2023/04/02 19:24:23;;;;;;;;;;;;;;;;;;4956879;29;19917;-83
2023/04/02 19:26:52;;;;;;;;;;;;;;;;;;4956504;29;20436;-84
2023/04/02 19:29:27;;;;;;;;;;;;;;;;;;4956489;29;19910;-84
2023/04/02 19:31:52;;;;;;;;;;;;;;;;;;4956275;29;19915;-84
2023/04/02 19:34:27;;;;;;;;;;;;;;;;;;4956386;29;20001;-84
2023/04/02 19:36:54;;;;;;;;;;;;;;;;;;4938953;29;20325;-87
2023/04/02 19:39:45;;;;;;;;;;;;;;;;;;4955398;28;20352;-84
2023/04/02 19:42:29;;;;;;;;;;;;;;;;;;4945040;29;19918;-85
2023/04/02 19:44:54;;;;;;;;;;;;;;;;;;4955892;29;19977;-85
2023/04/02 19:47:21;;;;;;;;;;;;;;;;;;4956012;29;20357;-84
2023/04/02 19:49:46;;;;;;;;;;;;;;;;;;4956316;29;19914;-84
2023/04/02 19:52:12;;;;;;;;;;;;;;;;;;4956410;29;19915;-85
2023/04/02 19:54:37;;;;;;;;;;;;;;;;;;4955878;29;19914;-86
2023/04/02 19:57:03;;;;;;;;;;;;;;;;;;4956184;29;19921;-86
2023/04/02 19:59:28;;;;;;;;;;;;;;;;;;4955876;29;19914;-85
2023/04/02 20:01:53;;;;;;;;;;;;;;;;;;4955844;29;19922;-86
2023/04/02 20:04:19;;;;;;;;;;;;;;;;;;4955972;29;19914;-85
2023/04/02 20:06:44;;;;;;;;;;;;;;;;;;4955894;29;19958;-85
2023/04/02 20:09:09;;;;;;;;;;;;;;;;;;4956148;29;20000;-84
2023/04/02 20:11:36;;;;;;;;;;;;;;;;;;4955950;29;19921;-84
2023/04/02 20:14:02;;;;;;;;;;;;;;;;;;4955557;29;19914;-84
2023/04/02 20:16:27;;;;;;;;;;;;;;;;;;4955964;29;19914;-84
2023/04/02 20:18:52;;;;;;;;;;;;;;;;;;4955774;29;19921;-84
2023/04/02 20:21:17;;;;;;;;;;;;;;;;;;4955674;29;19941;-84
2023/04/02 20:23:43;;;;;;;;;;;;;;;;;;4956021;29;19914;-84
2023/04/02 20:26:09;;;;;;;;;;;;;;;;;;4955710;29;19914;-84
2023/04/02 20:28:34;;;;;;;;;;;;;;;;;;4955819;29;19919;-84
2023/04/02 20:31:07;;;;;;;;;;;;;;;;;;4955579;29;19915;-84
2023/04/02 20:33:32;;;;;;;;;;;;;;;;;;4955785;29;19969;-85
2023/04/02 20:36:00;;;;;;;;;;;;;;;;;;4955645;29;20281;-84
2023/04/02 20:38:26;;;;;;;;;;;;;;;;;;4955537;29;19914;-84
2023/04/02 20:40:52;;;;;;;;;;;;;;;;;;4955387;29;20384;-84
2023/04/02 20:43:18;;;;;;;;;;;;;;;;;;4955606;29;19914;-84
2023/04/02 20:45:52;;;;;;;;;;;;;;;;;;4955546;29;19924;-84
2023/04/02 20:48:17;;;;;;;;;;;;;;;;;;4955378;29;20004;-85
2023/04/02 20:50:43;;;;;;;;;;;;;;;;;;4957979;28;19953;-84
2023/04/02 20:53:08;;;;;;;;;;;;;;;;;;4941873;29;19961;-84
2023/04/02 20:55:34;;;;;;;;;;;;;;;;;;4941779;29;19918;-84
2023/04/02 20:58:00;;;;;;;;;;;;;;;;;;4959004;29;19914;-84
2023/04/02 21:00:25;;;;;;;;;;;;;;;;;;4959282;29;20382;-84
2023/04/02 21:02:50;;;;;;;;;;;;;;;;;;4959085;29;19914;-84
2023/04/02 21:05:15;;;;;;;;;;;;;;;;;;4959224;29;19914;-84
2023/04/02 21:07:41;;;;;;;;;;;;;;;;;;4958949;29;19914;-84
2023/04/02 21:10:06;;;;;;;;;;;;;;;;;;4959095;29;19921;-84
2023/04/02 21:12:31;;;;;;;;;;;;;;;;;;4941793;29;20321;-84
2023/04/02 21:14:57;;;;;;;;;;;;;;;;;;4958968;29;20375;-84
2023/04/02 21:17:23;;;;;;;;;;;;;;;;;;4958912;29;19914;-84
2023/04/02 21:19:48;;;;;;;;;;;;;;;;;;4958760;29;19914;-84
2023/04/02 21:22:13;;;;;;;;;;;;;;;;;;4958829;29;19946;-84
2023/04/02 21:24:39;;;;;;;;;;;;;;;;;;4958900;29;20250;-84
2023/04/02 21:27:04;;;;;;;;;;;;;;;;;;4959004;29;20355;-85
2023/04/02 21:29:29;;;;;;;;;;;;;;;;;;4958927;29;19924;-85
2023/04/02 21:31:55;;;;;;;;;;;;;;;;;;4958812;29;19914;-85
2023/04/02 21:34:20;;;;;;;;;;;;;;;;;;4958631;29;20404;-85
2023/04/02 21:36:46;;;;;;;;;;;;;;;;;;4958857;29;19949;-85
2023/04/02 21:39:16;;;;;;;;;;;;;;;;;;4958403;29;20005;-84
2023/04/02 21:41:42;;;;;;;;;;;;;;;;;;4958352;29;19914;-84
2023/04/02 21:44:09;;;;;;;;;;;;;;;;;;4958222;29;19961;-84
2023/04/02 21:46:35;;;;;;;;;;;;;;;;;;4958291;29;19969;-84
2023/04/02 21:49:01;;;;;;;;;;;;;;;;;;4958302;29;19922;-85
2023/04/02 21:51:30;;;;;;;;;;;;;;;;;;4958239;29;19915;-84
2023/04/02 21:53:56;;;;;;;;;;;;;;;;;;4940803;29;19937;-84
2023/04/02 21:56:29;;;;;;;;;;;;;;;;;;4958275;29;19914;-84
2023/04/02 21:58:55;;;;;;;;;;;;;;;;;;4958438;29;19946;-86
